createdAt,value
2022-09-27T00:01:17.338Z,73.01
2022-09-27T00:03:46.354Z,73.47
2022-09-27T00:06:17.981Z,73.37
2022-09-27T00:08:46.341Z,73.10
2022-09-27T00:11:22.422Z,72.74
2022-09-27T00:13:50.809Z,72.97
2022-09-27T00:16:19.241Z,72.39
2022-09-27T00:18:47.591Z,72.50
2022-09-27T00:21:17.424Z,74.12
2022-09-27T00:23:45.769Z,74.15
2022-09-27T00:26:15.188Z,73.55
2022-09-27T00:28:43.858Z,73.59
2022-09-27T00:31:21.202Z,73.08
2022-09-27T00:33:50.851Z,72.82
2022-09-27T00:36:22.530Z,72.92
2022-09-27T00:38:51.617Z,72.80
2022-09-27T00:41:22.506Z,72.19
2022-09-27T00:43:52.485Z,72.79
2022-09-27T00:46:28.133Z,72.19
2022-09-27T00:49:06.690Z,72.03
2022-09-27T00:51:40.519Z,72.48
2022-09-27T00:54:11.954Z,72.53
2022-09-27T00:56:41.504Z,72.29
2022-09-27T00:59:15.301Z,72.54
2022-09-27T01:01:44.523Z,72.28
2022-09-27T01:04:15.334Z,71.59
2022-09-27T01:06:45.278Z,71.92
2022-09-27T01:09:14.208Z,71.56
2022-09-27T01:11:47.112Z,71.17
2022-09-27T01:14:30.312Z,71.34
2022-09-27T01:17:08.482Z,71.61
2022-09-27T01:19:58.165Z,70.94
2022-09-27T01:22:32.065Z,71.58
2022-09-27T01:25:12.875Z,71.35
2022-09-27T01:28:03.530Z,71.46
2022-09-27T01:30:43.574Z,71.22
2022-09-27T01:33:21.353Z,71.89
2022-09-27T01:36:03.270Z,71.72
2022-09-27T01:38:42.052Z,72.06
2022-09-27T01:41:25.352Z,72.22
2022-09-27T01:44:22.609Z,72.00
2022-09-27T01:46:59.943Z,71.95
2022-09-27T01:49:47.301Z,71.86
2022-09-27T01:52:21.693Z,72.20
2022-09-27T01:54:56.069Z,71.62
2022-09-27T01:57:27.663Z,72.17
2022-09-27T02:00:02.904Z,72.24
2022-09-27T02:02:49.474Z,72.74
2022-09-27T02:05:43.229Z,72.21
2022-09-27T02:08:36.368Z,73.91
2022-09-27T02:11:13.368Z,74.55
2022-09-27T02:13:51.024Z,74.49
2022-09-27T02:16:52.194Z,74.71
2022-09-27T02:19:35.348Z,74.71
2022-09-27T02:22:16.348Z,74.82
2022-09-27T02:24:49.984Z,75.40
2022-09-27T02:27:23.020Z,74.90
2022-09-27T02:29:58.850Z,75.11
2022-09-27T02:32:27.546Z,75.07
2022-09-27T02:35:02.165Z,74.89
2022-09-27T02:37:31.830Z,74.74
2022-09-27T02:40:00.851Z,74.28
2022-09-27T02:42:29.951Z,74.27
2022-09-27T02:44:58.968Z,74.33
2022-09-27T02:47:39.662Z,73.75
2022-09-27T02:50:27.714Z,72.99
2022-09-27T02:53:38.198Z,72.79
2022-09-27T02:56:32.790Z,72.65
2022-09-27T02:59:50.928Z,72.44
2022-09-27T03:02:37.368Z,73.03
2022-09-27T03:05:34.361Z,72.82
2022-09-27T03:08:04.858Z,72.80
2022-09-27T03:10:34.568Z,72.60
2022-09-27T03:13:03.913Z,72.33
2022-09-27T03:15:32.675Z,72.58
2022-09-27T03:18:04.805Z,72.31
2022-09-27T03:20:43.797Z,72.46
2022-09-27T03:23:13.923Z,72.60
2022-09-27T03:25:43.160Z,73.81
2022-09-27T03:28:13.960Z,74.05
2022-09-27T03:30:44.019Z,74.31
2022-09-27T03:33:14.370Z,73.59
2022-09-27T03:35:49.978Z,73.33
2022-09-27T03:38:18.584Z,73.25
2022-09-27T03:40:47.138Z,73.70
2022-09-27T03:43:16.083Z,74.12
2022-09-27T03:45:48.472Z,74.70
2022-09-27T03:48:18.952Z,74.52
2022-09-27T03:50:47.491Z,74.32
2022-09-27T03:53:17.176Z,74.31
2022-09-27T03:55:48.105Z,74.50
2022-09-27T03:58:16.450Z,74.98
2022-09-27T04:00:47.459Z,74.66
2022-09-27T04:03:17.700Z,74.42
2022-09-27T04:06:06.557Z,73.93
2022-09-27T04:08:41.170Z,74.15
2022-09-27T04:11:09.736Z,74.13
2022-09-27T04:13:39.745Z,74.93
2022-09-27T04:16:09.103Z,74.89
2022-09-27T04:19:12.669Z,75.39
2022-09-27T04:22:06.935Z,75.82
2022-09-27T04:24:36.710Z,75.93
2022-09-27T04:27:31.487Z,75.83
2022-09-27T04:30:00.025Z,74.88
2022-09-27T04:33:07.055Z,75.29
2022-09-27T04:35:59.039Z,76.01
2022-09-27T04:38:28.582Z,75.87
2022-09-27T04:41:02.327Z,76.35
2022-09-27T04:43:34.959Z,76.63
2022-09-27T04:46:04.944Z,77.20
2022-09-27T04:48:34.651Z,77.43
2022-09-27T04:51:04.020Z,77.50
2022-09-27T04:53:33.110Z,77.64
2022-09-27T04:56:06.250Z,77.62
2022-09-27T04:58:36.292Z,77.46
2022-09-27T05:01:05.437Z,77.68
2022-09-27T05:04:08.850Z,77.39
2022-09-27T05:06:40.549Z,77.29
2022-09-27T05:09:19.220Z,77.96
2022-09-27T05:11:54.117Z,77.98
2022-09-27T05:17:16.031Z,77.24
2022-09-27T05:20:11.438Z,76.97
2022-09-27T05:22:50.447Z,77.25
2022-09-27T05:25:18.838Z,76.83
2022-09-27T05:27:49.268Z,76.63
2022-09-27T05:30:18.085Z,76.39
2022-09-27T05:32:50.408Z,76.13
2022-09-27T05:35:28.301Z,76.73
2022-09-27T05:38:00.910Z,76.39
2022-09-27T05:40:41.740Z,76.05
2022-09-27T05:43:13.643Z,75.98
2022-09-27T05:45:43.207Z,76.40
2022-09-27T05:48:14.316Z,76.57
2022-09-27T05:50:53.620Z,76.01
2022-09-27T05:53:22.129Z,76.49
2022-09-27T05:55:50.574Z,76.22
2022-09-27T05:58:23.451Z,76.50
2022-09-27T06:01:00.111Z,76.19
2022-09-27T06:03:51.818Z,75.95
2022-09-27T06:06:43.127Z,76.04
2022-09-27T06:09:12.916Z,75.53
2022-09-27T06:11:44.434Z,75.81
2022-09-27T06:14:17.072Z,75.35
2022-09-27T06:17:06.416Z,75.65
2022-09-27T06:19:37.107Z,75.90
2022-09-27T06:22:05.791Z,75.93
2022-09-27T06:24:51.439Z,75.96
2022-09-27T06:27:27.009Z,75.91
2022-09-27T06:30:20.329Z,75.87
2022-09-27T06:32:59.131Z,75.61
2022-09-27T06:35:33.146Z,74.90
2022-09-27T06:38:05.006Z,74.52
2022-09-27T06:40:34.060Z,74.37
2022-09-27T06:43:28.466Z,74.30
2022-09-27T06:46:38.132Z,73.02
2022-09-27T06:49:54.352Z,72.46
2022-09-27T06:52:22.747Z,69.45
2022-09-27T06:54:51.153Z,67.33
2022-09-27T06:57:40.247Z,67.79
2022-09-27T07:00:24.918Z,66.50
2022-09-27T07:03:14.340Z,66.26
2022-09-27T07:06:03.323Z,66.12
2022-09-27T07:08:46.927Z,66.31
2022-09-27T07:11:15.628Z,65.77
2022-09-27T07:13:44.111Z,63.84
2022-09-27T07:16:13.595Z,63.69
2022-09-27T07:18:44.805Z,64.09
2022-09-27T07:21:13.783Z,62.06
2022-09-27T07:23:42.217Z,59.88
2022-09-27T07:26:13.494Z,60.55
2022-09-27T07:28:42.362Z,59.92
2022-09-27T07:31:15.092Z,58.49
2022-09-27T07:33:44.940Z,56.31
2022-09-27T07:36:15.117Z,55.20
2022-09-27T07:38:46.101Z,53.20
2022-09-27T07:41:17.185Z,52.65
2022-09-27T07:43:46.899Z,51.70
2022-09-27T07:46:16.695Z,50.26
2022-09-27T07:48:54.252Z,46.69
2022-09-27T07:51:35.117Z,45.71
2022-09-27T07:54:09.689Z,42.74
2022-09-27T07:56:38.127Z,41.14
2022-09-27T07:59:08.666Z,40.01
2022-09-27T08:01:37.246Z,38.37
2022-09-27T08:04:07.250Z,38.55
2022-09-27T08:06:35.729Z,37.28
2022-09-27T08:09:07.453Z,35.29
2022-09-27T08:11:37.441Z,35.77
2022-09-27T08:14:06.543Z,35.51
2022-09-27T08:16:36.371Z,33.46
2022-09-27T08:19:26.478Z,31.62
2022-09-27T08:22:15.302Z,32.96
2022-09-27T08:24:55.882Z,33.02
2022-09-27T08:27:47.670Z,32.92
2022-09-27T08:30:27.022Z,33.62
2022-09-27T08:32:58.701Z,32.39
2022-09-27T08:35:29.555Z,33.39
2022-09-27T08:37:59.194Z,35.55
2022-09-27T08:40:39.096Z,35.45
2022-09-27T08:43:16.123Z,36.00
2022-09-27T08:45:58.344Z,36.19
2022-09-27T08:48:30.241Z,37.85
2022-09-27T08:51:02.889Z,38.02
2022-09-27T08:53:38.111Z,38.10
2022-09-27T08:56:09.527Z,38.54
2022-09-27T08:58:49.533Z,39.24
2022-09-27T09:01:28.525Z,41.27
2022-09-27T09:04:31.373Z,41.19
2022-09-27T09:07:14.023Z,41.59
2022-09-27T09:09:51.270Z,42.32
2022-09-27T09:12:50.266Z,42.54
2022-09-27T09:15:56.542Z,43.25
2022-09-27T09:18:41.778Z,42.14
2022-09-27T09:21:23.548Z,42.86
2022-09-27T09:24:13.289Z,41.44
2022-09-27T09:26:51.415Z,41.92
2022-09-27T09:29:33.241Z,42.34
2022-09-27T09:32:12.925Z,40.79
2022-09-27T09:34:47.181Z,41.72
2022-09-27T09:37:22.546Z,40.34
2022-09-27T09:40:00.043Z,40.97
2022-09-27T09:42:35.912Z,41.22
2022-09-27T09:45:07.189Z,42.50
2022-09-27T09:47:42.142Z,41.75
2022-09-27T09:50:19.517Z,41.74
2022-09-27T09:52:51.856Z,42.62
2022-09-27T09:55:25.340Z,42.19
2022-09-27T09:58:10.241Z,42.22
2022-09-27T10:00:46.875Z,43.68
2022-09-27T10:03:15.357Z,43.76
2022-09-27T10:05:45.778Z,44.68
2022-09-27T10:08:20.173Z,42.65
2022-09-27T10:10:54.395Z,43.82
2022-09-27T10:13:42.175Z,43.65
2022-09-27T10:16:14.309Z,42.31
2022-09-27T10:18:49.102Z,42.40
2022-09-27T10:21:23.058Z,43.16
2022-09-27T10:24:10.425Z,42.94
2022-09-27T10:27:02.802Z,43.96
2022-09-27T10:29:38.046Z,44.04
2022-09-27T10:32:24.792Z,43.78
2022-09-27T10:35:38.308Z,42.58
2022-09-27T10:38:28.545Z,42.73
2022-09-27T10:41:24.381Z,42.41
2022-09-27T10:43:59.880Z,42.76
2022-09-27T10:46:35.314Z,42.20
2022-09-27T10:49:28.218Z,42.12
2022-09-27T10:52:01.785Z,42.20
2022-09-27T10:54:32.555Z,42.48
2022-09-27T10:57:05.512Z,41.78
2022-09-27T10:59:40.668Z,42.02
2022-09-27T11:02:22.441Z,40.84
2022-09-27T11:05:11.282Z,41.06
2022-09-27T11:07:50.556Z,40.64
2022-09-27T11:10:29.489Z,39.34
2022-09-27T11:13:15.670Z,35.30
2022-09-27T11:16:19.083Z,34.57
2022-09-27T11:18:53.996Z,32.37
2022-09-27T11:21:35.182Z,31.70
2022-09-27T11:24:27.184Z,30.94
2022-09-27T11:27:06.596Z,32.40
2022-09-27T11:29:46.578Z,30.50
2022-09-27T11:33:07.996Z,28.54
2022-09-27T11:35:57.049Z,27.25
2022-09-27T11:38:51.615Z,30.36
2022-09-27T11:41:40.280Z,28.00
2022-09-27T11:44:36.066Z,25.69
2022-09-27T11:47:17.367Z,26.31
2022-09-27T11:50:27.386Z,24.15
2022-09-27T11:53:10.782Z,24.79
2022-09-27T11:55:52.213Z,24.88
2022-09-27T11:58:31.500Z,23.45
2022-09-27T12:01:21.653Z,24.00
2022-09-27T12:04:31.944Z,23.28
2022-09-27T12:07:11.816Z,25.09
2022-09-27T12:09:44.726Z,25.16
2022-09-27T12:12:19.103Z,26.09
2022-09-27T12:14:52.078Z,26.77
2022-09-27T12:17:25.615Z,27.04
2022-09-27T12:19:58.471Z,28.09
2022-09-27T12:22:58.642Z,27.62
2022-09-27T12:25:42.362Z,29.21
2022-09-27T12:28:27.382Z,29.37
2022-09-27T12:31:27.851Z,30.39
2022-09-27T12:34:06.202Z,30.54
2022-09-27T12:36:38.985Z,31.89
2022-09-27T12:39:18.860Z,32.26
2022-09-27T12:42:01.410Z,32.68
2022-09-27T12:44:45.906Z,33.30
2022-09-27T12:47:33.774Z,33.48
2022-09-27T12:50:12.993Z,35.58
2022-09-27T12:52:46.572Z,34.89
2022-09-27T12:55:45.334Z,35.51
2022-09-27T12:58:33.905Z,36.20
2022-09-27T13:01:14.024Z,37.34
2022-09-27T13:03:58.358Z,37.10
2022-09-27T13:06:57.093Z,37.65
2022-09-27T13:09:56.848Z,38.48
2022-09-27T13:12:29.469Z,38.75
2022-09-27T13:15:02.151Z,39.02
2022-09-27T13:17:56.475Z,38.43
2022-09-27T13:20:49.516Z,39.31
2022-09-27T13:24:01.128Z,40.28
2022-09-27T13:26:48.849Z,40.31
2022-09-27T13:29:34.030Z,40.29
2022-09-27T13:32:22.694Z,41.15
2022-09-27T13:35:21.755Z,41.19
2022-09-27T13:38:23.775Z,41.46
2022-09-27T13:40:54.481Z,41.65
2022-09-27T13:50:25.256Z,42.31
2022-09-27T14:05:54.891Z,44.08
2022-09-27T14:08:30.557Z,44.38
2022-09-27T14:11:00.696Z,44.49
2022-09-27T14:13:32.382Z,44.76
2022-09-27T14:16:07.697Z,45.24
2022-09-27T14:18:48.179Z,45.40
2022-09-27T14:21:28.484Z,45.65
2022-09-27T14:24:29.735Z,45.82
2022-09-27T14:27:15.960Z,48.03
2022-09-27T14:29:48.392Z,47.71
2022-09-27T14:32:23.572Z,46.70
2022-09-27T14:35:28.650Z,46.78
2022-09-27T14:37:58.351Z,47.99
2022-09-27T14:40:28.938Z,47.34
2022-09-27T14:43:00.278Z,48.10
2022-09-27T14:45:35.128Z,47.89
2022-09-27T14:48:04.794Z,47.79
2022-09-27T14:50:33.493Z,48.56
2022-09-27T14:53:05.271Z,48.42
2022-09-27T14:55:35.038Z,49.20
2022-09-27T14:58:04.883Z,49.25
2022-09-27T15:00:36.476Z,48.79
2022-09-27T15:03:09.321Z,49.42
2022-09-27T15:05:43.016Z,49.27
2022-09-27T15:08:15.801Z,48.89
2022-09-27T15:10:45.872Z,49.51
2022-09-27T15:13:17.675Z,49.61
2022-09-27T15:15:47.538Z,49.30
2022-09-27T15:18:34.512Z,49.71
2022-09-27T15:21:08.505Z,49.45
2022-09-27T15:23:40.749Z,49.77
2022-09-27T15:26:14.609Z,49.92
2022-09-27T15:28:45.832Z,50.03
2022-09-27T15:31:15.481Z,50.33
2022-09-27T15:33:54.407Z,50.28
2022-09-27T15:36:55.799Z,50.24
2022-09-27T15:39:32.476Z,50.29
2022-09-27T15:42:09.809Z,50.53
2022-09-27T15:44:45.162Z,50.83
2022-09-27T15:47:51.947Z,51.05
2022-09-27T15:50:37.311Z,50.38
2022-09-27T15:53:07.166Z,50.93
2022-09-27T15:55:42.251Z,51.36
2022-09-27T15:58:17.075Z,51.25
2022-09-27T16:00:56.107Z,51.38
2022-09-27T16:03:25.580Z,51.55
2022-09-27T16:05:56.435Z,51.61
2022-09-27T16:08:25.740Z,50.66
2022-09-27T16:10:56.967Z,51.06
2022-09-27T16:13:30.362Z,50.82
2022-09-27T16:16:03.184Z,51.05
2022-09-27T16:18:31.928Z,50.72
2022-09-27T16:21:00.859Z,51.62
2022-09-27T16:23:29.347Z,51.52
2022-09-27T16:25:59.169Z,51.64
2022-09-27T16:28:27.752Z,51.22
2022-09-27T16:30:56.263Z,51.85
2022-09-27T16:33:24.751Z,51.91
2022-09-27T16:35:53.098Z,52.62
2022-09-27T16:38:21.550Z,52.79
2022-09-27T16:40:49.964Z,52.78
2022-09-27T16:43:20.078Z,53.15
2022-09-27T16:45:48.809Z,53.00
2022-09-27T16:48:17.188Z,53.28
2022-09-27T16:51:03.242Z,53.73
2022-09-27T16:53:31.570Z,54.46
2022-09-27T16:56:00.774Z,54.52
2022-09-27T16:58:31.637Z,54.72
2022-09-27T17:01:00.239Z,55.14
2022-09-27T17:03:29.288Z,55.14
2022-09-27T17:06:02.416Z,55.80
2022-09-27T17:08:30.833Z,55.47
2022-09-27T17:11:00.310Z,55.93
2022-09-27T17:13:28.698Z,55.81
2022-09-27T17:15:58.597Z,55.94
2022-09-27T17:18:26.984Z,55.73
2022-09-27T17:21:01.608Z,55.57
2022-09-27T17:23:29.983Z,55.62
2022-09-27T17:26:07.494Z,55.65
2022-09-27T17:28:37.540Z,55.39
2022-09-27T17:31:10.805Z,54.63
2022-09-27T17:33:44.732Z,55.42
2022-09-27T17:36:14.636Z,55.60
2022-09-27T17:38:43.028Z,55.56
2022-09-27T17:41:13.506Z,56.32
2022-09-27T17:43:50.271Z,56.19
2022-09-27T17:46:22.170Z,55.53
2022-09-27T17:49:08.783Z,55.42
2022-09-27T17:51:38.749Z,56.08
2022-09-27T17:54:09.396Z,55.54
2022-09-27T17:56:38.319Z,56.00
2022-09-27T17:59:07.851Z,56.66
2022-09-27T18:01:38.932Z,56.77
2022-09-27T19:49:08.576Z,57.35
2022-09-27T19:51:37.457Z,57.33
2022-09-27T19:54:06.081Z,58.16
2022-09-27T19:56:35.005Z,57.12
2022-09-27T19:59:07.040Z,57.64
2022-09-27T20:01:36.771Z,57.66
2022-09-27T20:04:05.171Z,57.95
2022-09-27T20:06:34.946Z,57.41
2022-09-27T20:09:04.343Z,58.32
2022-09-27T20:11:34.131Z,57.30
2022-09-27T20:14:02.533Z,57.60
2022-09-27T20:16:31.035Z,57.19
2022-09-27T20:19:00.909Z,57.83
2022-09-27T20:21:32.829Z,57.92
2022-09-27T20:24:04.036Z,57.49
2022-09-27T20:26:34.626Z,57.29
2022-09-27T20:29:05.385Z,58.26
2022-09-27T20:31:37.308Z,58.17
2022-09-27T20:34:07.788Z,58.07
2022-09-27T20:36:38.064Z,57.97
2022-09-27T20:39:09.476Z,57.64
2022-09-27T20:41:39.838Z,58.52
2022-09-27T20:44:09.700Z,58.28
2022-09-27T20:46:39.716Z,58.37
2022-09-27T20:49:09.896Z,57.84
2022-09-27T20:51:42.972Z,58.27
2022-09-27T20:54:14.465Z,57.58
2022-09-27T20:56:44.222Z,58.21
2022-09-27T20:59:17.015Z,58.06
2022-09-27T21:01:47.315Z,58.24
2022-09-27T21:04:17.953Z,58.79
2022-09-27T21:06:46.589Z,58.32
2022-09-27T21:09:19.287Z,57.98
2022-09-27T21:11:48.691Z,57.97
2022-09-27T21:14:17.273Z,58.79
2022-09-27T21:16:45.938Z,58.84
2022-09-27T21:19:14.938Z,58.29
2022-09-27T21:21:43.519Z,58.83
2022-09-27T21:24:13.082Z,58.84
2022-09-27T21:26:42.832Z,58.92
2022-09-27T21:29:11.837Z,58.74
2022-09-27T21:31:40.274Z,58.20
2022-09-27T21:34:08.785Z,59.16
2022-09-27T21:36:38.752Z,58.07
2022-09-27T21:39:08.778Z,59.03
2022-09-27T21:41:39.041Z,59.13
2022-09-27T21:44:11.586Z,58.95
2022-09-27T21:46:41.570Z,60.21
2022-09-27T21:49:11.281Z,60.26
2022-09-27T21:51:41.250Z,59.85
2022-09-27T21:54:11.502Z,60.28
2022-09-27T21:56:41.073Z,60.44
2022-09-27T21:59:12.930Z,61.17
2022-09-27T22:01:43.505Z,60.64
2022-09-27T22:04:12.841Z,60.27
2022-09-27T22:06:41.656Z,60.26
2022-09-27T22:09:14.326Z,60.09
2022-09-27T22:11:44.399Z,60.39
2022-09-27T22:14:15.162Z,60.60
2022-09-27T22:16:43.995Z,60.76
2022-09-27T22:19:13.766Z,60.47
2022-09-27T22:21:42.631Z,60.34
2022-09-27T22:24:14.012Z,60.52
2022-09-27T22:26:46.580Z,60.86
2022-09-27T22:29:16.707Z,60.48
2022-09-27T22:31:45.282Z,60.96
2022-09-27T22:34:18.743Z,60.71
2022-09-27T22:36:47.749Z,60.70
2022-09-27T22:39:16.254Z,61.18
2022-09-27T22:41:44.817Z,61.20
2022-09-27T22:44:13.348Z,61.32
2022-09-27T22:46:44.365Z,61.03
2022-09-27T22:49:12.791Z,61.67
2022-09-27T22:51:41.182Z,61.48
2022-09-27T22:54:09.729Z,61.73
2022-09-27T22:56:38.195Z,61.13
2022-09-27T22:59:06.789Z,61.51
2022-09-27T23:01:35.811Z,62.43
2022-09-27T23:04:05.673Z,62.24
2022-09-27T23:06:34.226Z,62.58
2022-09-27T23:09:02.949Z,62.03
2022-09-27T23:11:31.483Z,62.77
2022-09-27T23:13:59.818Z,62.70
2022-09-27T23:16:28.272Z,62.47
2022-09-27T23:18:58.048Z,63.04
2022-09-27T23:21:28.884Z,62.88
2022-09-27T23:23:59.859Z,62.81
2022-09-27T23:26:29.555Z,63.32
2022-09-27T23:28:59.777Z,63.73
2022-09-27T23:31:30.659Z,63.34
2022-09-27T23:34:00.328Z,63.55
2022-09-27T23:36:30.140Z,63.62
2022-09-27T23:39:01.452Z,63.58
2022-09-27T23:41:30.595Z,63.39
2022-09-27T23:43:59.330Z,63.39
2022-09-27T23:46:27.846Z,63.89
2022-09-27T23:48:59.162Z,64.31
2022-09-27T23:51:27.724Z,64.33
2022-09-27T23:53:58.253Z,64.72
2022-09-27T23:56:27.083Z,64.52
2022-09-27T23:58:55.428Z,64.15
